createdAt,value
2018-12-21T00:02:22.722Z,4.36
2018-12-21T00:04:57.553Z,4.20
2018-12-21T00:07:32.314Z,4.18
2018-12-21T00:10:07.438Z,4.02
2018-12-21T00:12:42.330Z,4.01
2018-12-21T00:15:17.155Z,4.02
2018-12-21T00:17:51.614Z,4.08
2018-12-21T00:20:25.929Z,4.14
2018-12-21T00:23:00.891Z,4.06
2018-12-21T00:25:35.305Z,4.05
2018-12-21T00:28:09.658Z,3.95
2018-12-21T00:30:43.710Z,3.98
2018-12-21T00:33:23.712Z,3.90
2018-12-21T00:36:03.511Z,4.01
2018-12-21T00:38:43.455Z,4.00
2018-12-21T00:41:17.678Z,4.00
2018-12-21T00:44:00.696Z,4.10
2018-12-21T00:46:41.119Z,4.00
2018-12-21T00:49:15.714Z,4.07
2018-12-21T00:51:49.974Z,4.04
2018-12-21T00:54:24.916Z,4.08
2018-12-21T00:56:59.216Z,4.00
2018-12-21T00:59:33.557Z,4.12
2018-12-21T01:02:08.778Z,4.17
2018-12-21T01:04:43.712Z,4.07
2018-12-21T01:07:18.670Z,4.08
2018-12-21T01:09:53.095Z,3.92
2018-12-21T01:12:28.114Z,3.86
2018-12-21T01:15:03.492Z,3.88
2018-12-21T01:17:37.983Z,3.70
2018-12-21T01:20:13.282Z,3.71
2018-12-21T01:22:47.631Z,3.70
2018-12-21T01:25:22.074Z,3.67
2018-12-21T01:27:56.574Z,3.72
2018-12-21T01:30:31.811Z,3.82
2018-12-21T01:33:06.262Z,3.89
2018-12-21T01:35:41.471Z,3.88
2018-12-21T01:38:16.125Z,3.96
2018-12-21T01:40:50.612Z,3.70
2018-12-21T01:43:32.775Z,3.75
2018-12-21T01:46:08.558Z,3.75
2018-12-21T01:48:43.242Z,3.74
2018-12-21T01:51:17.730Z,3.76
2018-12-21T01:53:52.381Z,3.89
2018-12-21T01:56:27.875Z,3.94
2018-12-21T01:59:02.551Z,4.01
2018-12-21T02:01:38.485Z,3.99
2018-12-21T02:04:13.298Z,4.05
2018-12-21T02:06:47.663Z,3.97
2018-12-21T02:09:21.978Z,4.06
2018-12-21T02:11:56.590Z,4.10
2018-12-21T02:14:31.186Z,4.10
2018-12-21T02:17:05.551Z,4.22
2018-12-21T02:19:40.703Z,4.25
2018-12-21T02:22:15.783Z,4.35
2018-12-21T02:24:50.493Z,4.34
2018-12-21T02:27:25.250Z,4.51
2018-12-21T02:30:00.111Z,4.72
2018-12-21T02:32:34.528Z,4.65
2018-12-21T02:35:09.191Z,4.73
2018-12-21T02:37:44.534Z,4.88
2018-12-21T02:40:19.721Z,4.94
2018-12-21T02:42:54.754Z,5.05
2018-12-21T02:45:29.832Z,5.05
2018-12-21T02:48:04.549Z,4.96
2018-12-21T02:50:39.108Z,4.78
2018-12-21T02:53:13.707Z,4.69
2018-12-21T02:55:49.157Z,4.60
2018-12-21T02:58:24.308Z,4.57
2018-12-21T03:00:58.873Z,4.57
2018-12-21T03:03:33.684Z,4.53
2018-12-21T03:06:08.322Z,4.42
2018-12-21T03:08:43.091Z,4.21
2018-12-21T03:11:18.754Z,4.18
2018-12-21T03:13:53.156Z,3.95
2018-12-21T03:16:27.475Z,3.77
2018-12-21T03:19:02.544Z,3.67
2018-12-21T03:21:37.266Z,3.52
2018-12-21T03:24:11.882Z,3.53
2018-12-21T03:26:47.403Z,3.50
2018-12-21T03:29:22.058Z,3.51
2018-12-21T03:31:57.198Z,3.61
2018-12-21T03:34:31.608Z,3.63
2018-12-21T03:37:07.034Z,3.60
2018-12-21T03:39:42.638Z,3.74
2018-12-21T03:42:17.210Z,3.68
2018-12-21T03:44:52.000Z,3.60
2018-12-21T03:47:26.483Z,3.59
2018-12-21T03:50:01.081Z,3.54
2018-12-21T03:52:36.913Z,3.66
2018-12-21T03:55:11.678Z,3.65
2018-12-21T03:57:46.270Z,3.59
2018-12-21T04:00:20.887Z,3.50
2018-12-21T04:02:56.072Z,3.55
2018-12-21T04:05:31.518Z,3.49
2018-12-21T04:08:06.090Z,3.48
2018-12-21T04:10:41.073Z,3.48
2018-12-21T04:13:15.861Z,3.50
2018-12-21T04:15:50.704Z,3.63
2018-12-21T04:18:25.465Z,3.58
2018-12-21T04:20:59.756Z,3.64
2018-12-21T04:23:34.861Z,3.76
2018-12-21T04:26:09.213Z,3.58
2018-12-21T04:28:43.944Z,3.50
2018-12-21T04:31:18.836Z,3.48
2018-12-21T04:33:53.237Z,3.52
2018-12-21T04:36:27.779Z,3.53
2018-12-21T04:39:02.559Z,3.60
2018-12-21T04:41:37.717Z,3.57
2018-12-21T04:44:12.438Z,3.50
2018-12-21T04:46:47.783Z,3.56
2018-12-21T04:49:22.293Z,3.50
2018-12-21T04:51:57.050Z,3.48
2018-12-21T04:54:31.995Z,3.45
2018-12-21T04:57:06.607Z,3.45
2018-12-21T04:59:41.921Z,3.43
2018-12-21T05:02:16.471Z,3.44
2018-12-21T05:04:51.820Z,3.44
2018-12-21T05:07:26.963Z,3.51
2018-12-21T05:10:02.454Z,3.60
2018-12-21T05:12:38.528Z,3.52
2018-12-21T05:15:13.723Z,3.44
2018-12-21T05:17:48.456Z,3.43
2018-12-21T05:20:22.758Z,3.25
2018-12-21T05:22:57.912Z,3.41
2018-12-21T05:25:32.409Z,3.37
2018-12-21T05:28:07.393Z,3.36
2018-12-21T05:30:41.782Z,3.39
2018-12-21T05:33:17.132Z,3.36
2018-12-21T05:35:51.851Z,3.48
2018-12-21T05:38:26.375Z,3.55
2018-12-21T05:41:01.310Z,3.55
2018-12-21T05:43:35.795Z,3.33
2018-12-21T05:46:10.626Z,3.44
2018-12-21T05:48:45.430Z,3.56
2018-12-21T05:51:20.079Z,3.63
2018-12-21T05:53:54.859Z,3.58
2018-12-21T05:56:29.215Z,3.55
2018-12-21T05:59:06.286Z,3.60
2018-12-21T06:01:40.789Z,3.69
2018-12-21T06:04:15.263Z,3.79
2018-12-21T06:06:49.687Z,3.85
2018-12-21T06:09:24.336Z,3.94
2018-12-21T06:11:58.903Z,4.10
2018-12-21T06:14:34.010Z,3.97
2018-12-21T06:17:08.979Z,3.98
2018-12-21T06:19:43.580Z,3.98
2018-12-21T06:22:18.103Z,3.95
2018-12-21T06:24:52.643Z,3.87
2018-12-21T06:27:40.217Z,3.75
2018-12-21T06:30:15.010Z,3.72
2018-12-21T06:32:50.380Z,3.78
2018-12-21T06:35:25.454Z,3.78
2018-12-21T06:38:00.605Z,3.54
2018-12-21T06:40:35.704Z,3.52
2018-12-21T06:43:10.775Z,3.57
2018-12-21T06:45:45.400Z,3.51
2018-12-21T06:48:19.926Z,3.58
2018-12-21T06:50:54.330Z,3.52
2018-12-21T06:53:29.159Z,3.39
2018-12-21T06:56:04.667Z,3.43
2018-12-21T06:58:39.190Z,3.26
2018-12-21T07:01:13.730Z,3.23
2018-12-21T07:03:48.321Z,3.33
2018-12-21T07:06:22.787Z,3.20
2018-12-21T07:08:57.493Z,3.34
2018-12-21T07:11:32.318Z,3.23
2018-12-21T07:14:07.369Z,3.22
2018-12-21T07:16:42.275Z,3.25
2018-12-21T07:19:16.666Z,3.25
2018-12-21T07:21:51.082Z,3.33
2018-12-21T07:24:25.810Z,3.47
2018-12-21T07:27:01.063Z,3.25
2018-12-21T07:29:35.523Z,3.46
2018-12-21T07:32:10.431Z,3.40
2018-12-21T07:34:44.901Z,3.25
2018-12-21T07:37:20.626Z,3.39
2018-12-21T07:39:55.306Z,3.45
2018-12-21T07:42:30.117Z,3.44
2018-12-21T07:45:05.945Z,3.52
2018-12-21T07:47:40.429Z,3.52
2018-12-21T07:50:15.050Z,3.54
2018-12-21T07:52:49.966Z,3.63
2018-12-21T07:55:24.491Z,3.66
2018-12-21T07:57:58.964Z,3.70
2018-12-21T08:00:33.840Z,3.83
2018-12-21T08:03:09.549Z,3.92
2018-12-21T08:05:43.939Z,3.93
2018-12-21T08:08:18.791Z,4.03
2018-12-21T08:10:53.531Z,4.05
2018-12-21T08:13:28.362Z,4.11
2018-12-21T08:16:02.931Z,4.31
2018-12-21T08:18:37.817Z,4.43
2018-12-21T08:21:12.759Z,4.60
2018-12-21T08:23:47.618Z,4.60
2018-12-21T08:26:21.933Z,4.80
2018-12-21T08:28:56.583Z,4.90
2018-12-21T08:31:33.164Z,4.93
2018-12-21T08:34:07.887Z,4.92
2018-12-21T08:36:42.627Z,4.89
2018-12-21T08:39:17.345Z,5.05
2018-12-21T08:41:52.259Z,5.01
2018-12-21T08:44:27.231Z,5.10
2018-12-21T08:47:01.909Z,5.28
2018-12-21T08:49:36.431Z,5.34
2018-12-21T08:52:11.643Z,5.48
2018-12-21T08:54:46.327Z,5.43
2018-12-21T08:57:21.199Z,5.38
2018-12-21T08:59:55.612Z,5.56
2018-12-21T09:02:30.350Z,5.69
2018-12-21T09:05:06.103Z,5.82
2018-12-21T09:07:40.567Z,5.88
2018-12-21T09:10:15.676Z,5.99
2018-12-21T09:12:49.982Z,6.23
2018-12-21T09:15:24.791Z,6.50
2018-12-21T09:17:59.279Z,6.58
2018-12-21T09:20:33.939Z,6.80
2018-12-21T09:23:08.334Z,6.65
2018-12-21T09:25:43.289Z,6.52
2018-12-21T09:28:17.880Z,6.06
2018-12-21T09:30:52.870Z,6.33
2018-12-21T09:33:30.651Z,6.66
2018-12-21T09:36:05.794Z,6.43
2018-12-21T09:38:40.842Z,6.50
2018-12-21T09:41:16.711Z,6.53
2018-12-21T09:43:51.450Z,6.68
2018-12-21T09:46:26.362Z,6.93
2018-12-21T09:49:01.129Z,6.97
2018-12-21T09:51:35.920Z,6.97
2018-12-21T09:54:10.591Z,6.74
2018-12-21T09:56:45.004Z,6.64
2018-12-21T09:59:19.514Z,6.39
2018-12-21T10:01:54.032Z,6.41
2018-12-21T10:04:28.474Z,6.33
2018-12-21T10:07:03.398Z,6.37
2018-12-21T10:09:38.023Z,6.36
2018-12-21T10:12:12.654Z,6.44
2018-12-21T10:14:47.472Z,6.53
2018-12-21T10:17:21.907Z,6.52
2018-12-21T10:19:56.226Z,6.35
2018-12-21T10:22:30.866Z,6.32
2018-12-21T10:25:07.019Z,6.37
2018-12-21T10:27:41.440Z,6.45
2018-12-21T10:30:15.999Z,6.30
2018-12-21T10:32:51.818Z,6.38
2018-12-21T10:35:26.267Z,6.33
2018-12-21T10:38:00.873Z,6.32
2018-12-21T10:40:35.587Z,6.26
2018-12-21T10:43:09.961Z,6.24
2018-12-21T10:45:45.434Z,6.40
2018-12-21T10:48:20.322Z,6.44
2018-12-21T10:50:54.806Z,6.39
2018-12-21T10:53:29.310Z,6.36
2018-12-21T10:56:04.110Z,6.41
2018-12-21T10:58:38.982Z,6.23
2018-12-21T11:01:14.309Z,6.35
2018-12-21T11:03:48.603Z,6.33
2018-12-21T11:06:22.962Z,6.22
2018-12-21T11:08:57.451Z,6.18
2018-12-21T11:11:32.914Z,6.08
2018-12-21T11:14:07.359Z,6.09
2018-12-21T11:16:42.468Z,5.86
2018-12-21T11:19:17.710Z,5.80
2018-12-21T11:21:52.043Z,5.77
2018-12-21T11:24:35.189Z,5.60
2018-12-21T11:27:03.864Z,5.76
2018-12-21T11:29:38.480Z,5.62
2018-12-21T11:32:13.425Z,5.73
2018-12-21T11:34:48.714Z,5.40
2018-12-21T11:37:24.393Z,5.34
2018-12-21T11:39:58.847Z,5.17
2018-12-21T11:42:33.626Z,5.17
2018-12-21T11:45:10.730Z,5.14
2018-12-21T11:47:45.711Z,5.08
2018-12-21T11:50:20.746Z,5.12
2018-12-21T11:52:55.212Z,5.16
2018-12-21T11:55:32.122Z,5.24
2018-12-21T11:58:06.589Z,5.38
2018-12-21T12:00:42.170Z,5.68
2018-12-21T12:03:23.351Z,5.95
2018-12-21T12:05:58.225Z,6.12
2018-12-21T12:08:33.168Z,6.02
2018-12-21T12:11:08.757Z,6.12
2018-12-21T12:13:43.597Z,6.19
2018-12-21T12:16:17.986Z,6.10
2018-12-21T12:18:52.844Z,6.14
2018-12-21T12:21:27.230Z,6.13
2018-12-21T12:24:01.810Z,6.09
2018-12-21T12:26:44.241Z,5.65
2018-12-21T12:29:13.854Z,5.83
2018-12-21T12:31:48.186Z,5.86
2018-12-21T12:34:22.676Z,5.42
2018-12-21T12:36:58.042Z,5.38
2018-12-21T12:39:32.879Z,5.49
2018-12-21T12:42:07.394Z,5.43
2018-12-21T12:44:42.299Z,5.52
2018-12-21T12:47:16.746Z,5.38
2018-12-21T12:49:51.862Z,5.54
2018-12-21T12:52:26.641Z,5.33
2018-12-21T12:55:02.515Z,5.36
2018-12-21T12:57:37.871Z,5.36
2018-12-21T13:00:13.624Z,5.35
2018-12-21T13:02:48.375Z,5.47
2018-12-21T13:05:23.422Z,5.75
2018-12-21T13:07:58.054Z,5.63
2018-12-21T13:10:32.615Z,5.64
2018-12-21T13:13:07.292Z,5.91
2018-12-21T13:15:42.425Z,5.95
2018-12-21T13:18:16.852Z,6.04
2018-12-21T13:20:51.438Z,5.98
2018-12-21T13:23:26.737Z,6.13
2018-12-21T13:26:01.607Z,6.27
2018-12-21T13:28:36.915Z,6.42
2018-12-21T13:31:11.227Z,6.57
2018-12-21T13:33:46.617Z,6.97
2018-12-21T13:36:21.641Z,7.13
2018-12-21T13:38:59.648Z,7.21
2018-12-21T13:41:34.471Z,7.36
2018-12-21T13:44:09.152Z,7.47
2018-12-21T13:46:44.051Z,7.63
2018-12-21T13:49:18.598Z,7.76
2018-12-21T13:54:49.484Z,8.01
2018-12-21T14:00:20.725Z,8.16
2018-12-21T14:03:17.498Z,8.36
2018-12-21T14:05:57.627Z,8.49
2018-12-21T14:11:35.262Z,8.65
2018-12-21T14:17:18.416Z,8.79
2018-12-21T14:19:57.376Z,8.82
2018-12-21T14:22:32.287Z,8.82
2018-12-21T14:25:08.197Z,8.87
2018-12-21T14:27:43.337Z,8.88
2018-12-21T14:30:18.039Z,8.88
2018-12-21T14:32:52.723Z,8.79
2018-12-21T14:35:27.307Z,8.72
2018-12-21T14:38:02.151Z,8.69
2018-12-21T14:43:40.692Z,8.71
2018-12-21T14:46:15.328Z,8.75
2018-12-21T14:48:50.535Z,8.80
2018-12-21T14:51:25.489Z,8.75
2018-12-21T14:54:01.177Z,8.82
2018-12-21T14:56:35.866Z,8.85
2018-12-21T14:59:10.842Z,8.88
2018-12-21T15:04:42.167Z,8.83
2018-12-21T15:10:14.104Z,8.90
2018-12-21T15:12:53.098Z,8.93
2018-12-21T15:15:27.885Z,8.88
2018-12-21T15:18:02.676Z,8.97
2018-12-21T15:20:37.116Z,9.01
2018-12-21T15:23:11.779Z,9.02
2018-12-21T15:25:46.466Z,8.99
2018-12-21T15:28:22.098Z,9.02
2018-12-21T15:31:10.802Z,9.01
2018-12-21T15:33:54.149Z,9.08
2018-12-21T15:36:28.894Z,9.14
2018-12-21T15:39:09.875Z,9.14
2018-12-21T15:44:50.043Z,9.15
2018-12-21T15:53:40.108Z,9.13
2018-12-21T15:56:22.276Z,9.08
2018-12-21T15:58:56.708Z,9.09
2018-12-21T16:01:37.308Z,9.16
2018-12-21T16:04:17.715Z,9.17
2018-12-21T16:06:55.708Z,9.22
2018-12-21T16:09:30.184Z,9.31
2018-12-21T16:12:12.547Z,9.36
2018-12-21T16:17:45.166Z,9.34
2018-12-21T16:20:20.523Z,9.45
2018-12-21T16:22:55.478Z,9.51
2018-12-21T16:25:35.308Z,9.61
2018-12-21T16:28:11.039Z,9.69
2018-12-21T16:36:57.311Z,9.72
2018-12-21T16:39:35.348Z,9.79
2018-12-21T16:42:13.257Z,9.81
2018-12-21T16:44:53.512Z,9.88
2018-12-21T16:47:38.303Z,9.98
2018-12-21T16:50:25.517Z,10.09
2018-12-21T16:53:05.102Z,10.15
2018-12-21T16:55:41.504Z,10.10
2018-12-21T16:58:21.434Z,10.24
2018-12-21T17:00:56.510Z,10.26
2018-12-21T17:03:31.383Z,10.29
2018-12-21T17:06:06.422Z,10.25
2018-12-21T17:08:41.313Z,10.28
2018-12-21T17:11:15.811Z,10.29
2018-12-21T17:13:50.710Z,10.23
2018-12-21T17:16:26.108Z,10.30
2018-12-21T17:19:04.645Z,10.34
2018-12-21T17:21:39.441Z,10.37
2018-12-21T17:24:14.579Z,10.36
2018-12-21T17:26:51.201Z,10.43
2018-12-21T17:29:26.220Z,10.46
2018-12-21T17:32:00.764Z,10.52
2018-12-21T17:37:35.527Z,10.51
2018-12-21T17:40:11.322Z,10.50
2018-12-21T17:42:45.714Z,10.45
2018-12-21T17:45:20.158Z,10.50
2018-12-21T17:47:55.066Z,10.49
2018-12-21T17:50:29.965Z,10.47
2018-12-21T17:53:05.174Z,10.50
2018-12-21T17:55:40.251Z,10.48
2018-12-21T17:58:15.211Z,10.49
2018-12-21T18:00:50.221Z,10.48
2018-12-21T18:03:32.357Z,10.47
2018-12-21T18:06:07.407Z,10.51
2018-12-21T18:08:41.946Z,10.53
2018-12-21T18:11:16.622Z,10.52
2018-12-21T18:13:51.270Z,10.51
2018-12-21T18:16:25.791Z,10.55
2018-12-21T18:19:00.588Z,10.51
2018-12-21T18:21:47.363Z,10.50
2018-12-21T18:24:23.319Z,10.44
2018-12-21T18:26:57.904Z,10.50
2018-12-21T18:29:35.639Z,10.49
2018-12-21T18:32:25.290Z,10.53
2018-12-21T18:35:04.222Z,10.56
2018-12-21T18:37:58.593Z,10.59
2018-12-21T18:40:34.080Z,10.57
2018-12-21T18:43:08.765Z,10.59
2018-12-21T18:45:43.363Z,10.66
2018-12-21T18:48:18.458Z,10.69
2018-12-21T18:50:53.030Z,10.71
2018-12-21T18:53:27.976Z,10.74
2018-12-21T18:56:03.447Z,10.72
2018-12-21T18:58:38.226Z,10.82
2018-12-21T19:01:13.368Z,10.86
2018-12-21T19:03:48.132Z,10.82
2018-12-21T19:06:23.241Z,10.85
2018-12-21T19:08:58.102Z,10.83
2018-12-21T19:11:35.619Z,10.80
2018-12-21T19:14:11.075Z,10.85
2018-12-21T19:16:45.660Z,10.81
2018-12-21T19:19:20.711Z,10.82
2018-12-21T19:21:57.769Z,10.87
2018-12-21T19:24:33.898Z,10.86
2018-12-21T19:27:09.028Z,10.90
2018-12-21T19:29:44.226Z,10.88
2018-12-21T19:32:19.066Z,10.89
2018-12-21T19:34:55.271Z,10.87
2018-12-21T19:37:30.669Z,10.89
2018-12-21T19:40:07.374Z,10.91
2018-12-21T19:42:42.098Z,10.86
2018-12-21T19:45:17.627Z,10.89
2018-12-21T19:47:52.188Z,10.87
2018-12-21T19:50:26.770Z,10.86
2018-12-21T19:53:02.653Z,10.85
2018-12-21T19:56:02.021Z,10.85
2018-12-21T19:58:37.339Z,10.83
2018-12-21T20:01:12.249Z,10.83
2018-12-21T20:03:46.925Z,10.80
2018-12-21T20:06:21.322Z,10.78
2018-12-21T20:08:55.697Z,10.78
2018-12-21T20:11:30.786Z,10.80
2018-12-21T20:14:05.385Z,10.75
2018-12-21T20:16:42.196Z,10.77
2018-12-21T20:19:20.819Z,10.77
2018-12-21T20:21:55.931Z,10.77
2018-12-21T20:24:35.208Z,10.80
2018-12-21T20:27:15.043Z,10.78
2018-12-21T20:29:49.695Z,10.80
2018-12-21T20:32:24.466Z,10.79
2018-12-21T20:34:59.651Z,10.83
2018-12-21T20:37:35.271Z,10.84
2018-12-21T20:40:12.152Z,10.82
2018-12-21T20:42:46.838Z,10.81
2018-12-21T20:45:22.027Z,10.83
2018-12-21T20:47:56.706Z,10.85
2018-12-21T20:50:31.101Z,10.88
2018-12-21T20:53:05.606Z,10.95
2018-12-21T20:55:41.338Z,10.96
2018-12-21T20:59:01.223Z,11.00
2018-12-21T21:01:35.497Z,10.97
2018-12-21T21:04:09.822Z,11.00
2018-12-21T21:06:44.241Z,10.99
2018-12-21T21:09:18.630Z,11.05
2018-12-21T21:11:53.862Z,11.06
2018-12-21T21:14:28.344Z,11.06
2018-12-21T21:17:03.436Z,11.07
2018-12-21T21:19:38.854Z,11.06
2018-12-21T21:22:13.920Z,11.08
2018-12-21T21:24:48.334Z,11.12
2018-12-21T21:27:30.326Z,11.08
2018-12-21T21:30:00.519Z,11.11
2018-12-21T21:32:35.044Z,11.13
2018-12-21T21:35:09.974Z,11.18
2018-12-21T21:37:44.434Z,11.18
2018-12-21T21:40:20.026Z,11.15
2018-12-21T21:42:57.741Z,11.16
2018-12-21T21:45:31.685Z,11.16
2018-12-21T21:48:06.703Z,11.19
2018-12-21T21:50:41.180Z,11.14
2018-12-21T21:53:15.471Z,11.15
2018-12-21T21:55:49.835Z,11.13
2018-12-21T21:58:24.670Z,11.15
2018-12-21T22:00:59.402Z,11.17
2018-12-21T22:03:33.935Z,11.17
2018-12-21T22:06:08.639Z,11.22
2018-12-21T22:08:46.460Z,11.23
2018-12-21T22:11:21.052Z,11.22
2018-12-21T22:13:55.729Z,11.23
2018-12-21T22:16:31.375Z,11.23
2018-12-21T22:19:06.286Z,11.25
2018-12-21T22:21:41.683Z,11.28
2018-12-21T22:24:16.593Z,11.26
2018-12-21T22:26:51.659Z,11.30
2018-12-21T22:29:26.762Z,11.27
2018-12-21T22:32:01.359Z,11.24
2018-12-21T22:34:36.103Z,11.24
2018-12-21T22:37:10.779Z,11.26
2018-12-21T22:39:45.347Z,11.25
2018-12-21T22:42:20.904Z,11.30
2018-12-21T22:44:55.398Z,11.28
2018-12-21T22:47:29.911Z,11.30
2018-12-21T22:50:08.931Z,11.33
2018-12-21T22:52:43.562Z,11.32
2018-12-21T22:55:18.086Z,11.37
2018-12-21T22:57:56.467Z,11.35
2018-12-21T23:00:37.139Z,11.34
2018-12-21T23:03:11.971Z,11.33
2018-12-21T23:05:46.744Z,11.35
2018-12-21T23:08:22.302Z,11.35
2018-12-21T23:10:56.786Z,11.35
2018-12-21T23:13:31.287Z,11.35
2018-12-21T23:16:06.650Z,11.33
2018-12-21T23:18:41.574Z,11.40
2018-12-21T23:21:16.134Z,11.44
2018-12-21T23:23:51.283Z,11.45
2018-12-21T23:26:26.871Z,11.42
2018-12-21T23:29:01.272Z,11.35
2018-12-21T23:31:36.422Z,11.22
2018-12-21T23:34:10.947Z,11.18
2018-12-21T23:36:45.824Z,11.12
2018-12-21T23:39:20.421Z,11.09
2018-12-21T23:41:54.933Z,11.08
2018-12-21T23:44:30.238Z,11.05
2018-12-21T23:47:04.726Z,11.09
2018-12-21T23:49:39.529Z,11.07
2018-12-21T23:52:14.531Z,11.10
2018-12-21T23:54:48.986Z,11.12
2018-12-21T23:57:23.555Z,11.16
2018-12-21T23:59:58.025Z,11.19
